createdAt,value
2018-05-21T00:00:29.062Z,10.60
2018-05-21T00:02:55.468Z,10.80
2018-05-21T00:05:21.890Z,10.63
2018-05-21T00:07:48.253Z,10.70
2018-05-21T00:10:14.599Z,12.23
2018-05-21T00:12:40.986Z,11.97
2018-05-21T00:15:07.402Z,10.80
2018-05-21T00:17:33.789Z,10.50
2018-05-21T00:20:00.210Z,11.13
2018-05-21T00:22:26.574Z,10.40
2018-05-21T00:24:52.968Z,10.97
2018-05-21T00:27:19.265Z,10.37
2018-05-21T00:29:45.605Z,10.70
2018-05-21T00:32:12.009Z,11.57
2018-05-21T00:34:38.517Z,11.20
2018-05-21T00:37:04.922Z,10.43
2018-05-21T00:39:31.303Z,11.03
2018-05-21T00:41:57.694Z,10.87
2018-05-21T00:44:24.108Z,11.73
2018-05-21T00:46:50.526Z,11.17
2018-05-21T00:49:16.942Z,10.23
2018-05-21T00:51:43.448Z,10.67
2018-05-21T00:54:09.838Z,11.03
2018-05-21T00:56:36.241Z,11.90
2018-05-21T00:59:02.646Z,11.50
2018-05-21T01:01:29.135Z,11.07
2018-05-21T01:03:55.461Z,11.40
2018-05-21T01:06:21.838Z,11.93
2018-05-21T01:08:48.216Z,10.47
2018-05-21T01:11:14.616Z,11.90
2018-05-21T01:13:41.072Z,11.57
2018-05-21T01:16:07.518Z,11.53
2018-05-21T01:18:33.917Z,11.63
2018-05-21T01:21:00.312Z,12.10
2018-05-21T01:23:26.748Z,13.43
2018-05-21T01:25:53.163Z,12.70
2018-05-21T01:28:19.590Z,12.63
2018-05-21T01:30:46.153Z,12.43
2018-05-21T01:33:12.541Z,11.70
2018-05-21T01:35:38.914Z,12.20
2018-05-21T01:38:05.313Z,12.20
2018-05-21T01:40:31.742Z,12.93
2018-05-21T01:42:59.529Z,12.20
2018-05-21T01:45:25.916Z,11.57
2018-05-21T01:47:52.416Z,11.60
2018-05-21T01:50:18.788Z,11.17
2018-05-21T01:52:45.180Z,11.27
2018-05-21T01:55:11.594Z,12.57
2018-05-21T01:57:37.997Z,12.50
2018-05-21T02:00:05.453Z,14.87
2018-05-21T02:02:31.862Z,16.03
2018-05-21T02:04:58.268Z,16.60
2018-05-21T02:07:24.698Z,16.43
2018-05-21T02:09:51.074Z,18.03
2018-05-21T02:12:17.479Z,17.70
2018-05-21T02:14:44.104Z,18.30
2018-05-21T02:17:10.516Z,17.93
2018-05-21T02:19:36.886Z,17.00
2018-05-21T02:22:03.408Z,15.30
2018-05-21T02:24:29.825Z,12.20
2018-05-21T02:26:56.280Z,12.77
2018-05-21T02:29:22.706Z,12.27
2018-05-21T02:31:49.139Z,11.97
2018-05-21T02:34:15.531Z,11.97
2018-05-21T02:36:41.916Z,11.53
2018-05-21T02:39:08.315Z,12.20
2018-05-21T02:41:34.725Z,12.53
2018-05-21T02:44:01.109Z,12.10
2018-05-21T02:46:27.503Z,12.67
2018-05-21T02:48:53.997Z,11.93
2018-05-21T02:51:20.391Z,12.37
2018-05-21T02:53:46.755Z,12.93
2018-05-21T02:56:13.182Z,13.23
2018-05-21T02:58:40.448Z,13.53
2018-05-21T03:01:06.831Z,13.40
2018-05-21T03:03:33.233Z,12.70
2018-05-21T03:05:59.653Z,13.60
2018-05-21T03:08:26.079Z,13.30
2018-05-21T03:10:52.509Z,12.47
2018-05-21T03:13:19.021Z,14.00
2018-05-21T03:15:45.433Z,14.07
2018-05-21T03:18:11.886Z,14.47
2018-05-21T03:20:38.241Z,14.23
2018-05-21T03:23:04.652Z,14.60
2018-05-21T03:25:31.033Z,14.80
2018-05-21T03:27:57.410Z,14.80
2018-05-21T03:30:23.845Z,14.80
2018-05-21T03:32:50.219Z,16.23
2018-05-21T03:35:16.650Z,16.23
2018-05-21T03:37:43.078Z,16.30
2018-05-21T03:40:09.537Z,16.30
2018-05-21T03:42:35.894Z,16.77
2018-05-21T03:45:02.415Z,17.30
2018-05-21T03:47:28.791Z,16.30
2018-05-21T03:49:55.197Z,17.13
2018-05-21T03:52:21.614Z,17.63
2018-05-21T03:54:48.105Z,17.90
2018-05-21T03:57:14.454Z,17.87
2018-05-21T03:59:52.989Z,19.07
2018-05-21T04:02:31.704Z,18.40
2018-05-21T04:04:58.313Z,17.83
2018-05-21T04:07:24.730Z,19.50
2018-05-21T04:09:51.157Z,19.23
2018-05-21T04:12:18.515Z,18.30
2018-05-21T04:14:45.227Z,17.13
2018-05-21T04:17:11.768Z,17.30
2018-05-21T04:19:38.507Z,17.43
2018-05-21T04:22:04.909Z,18.03
2018-05-21T04:24:31.318Z,17.87
2018-05-21T04:26:57.772Z,17.87
2018-05-21T04:29:24.213Z,18.73
2018-05-21T04:31:50.623Z,18.43
2018-05-21T04:34:17.071Z,18.60
2018-05-21T04:36:43.802Z,19.97
2018-05-21T04:39:10.204Z,19.07
2018-05-21T04:41:36.585Z,18.67
2018-05-21T04:44:03.043Z,20.33
2018-05-21T04:46:29.446Z,19.03
2018-05-21T04:48:55.918Z,20.07
2018-05-21T04:51:22.307Z,19.97
2018-05-21T04:53:48.714Z,18.77
2018-05-21T04:56:15.098Z,18.77
2018-05-21T04:58:41.434Z,19.50
2018-05-21T05:01:07.869Z,19.27
2018-05-21T05:03:34.282Z,19.10
2018-05-21T05:06:00.719Z,18.20
2018-05-21T05:08:27.348Z,18.83
2018-05-21T05:10:54.109Z,19.80
2018-05-21T05:13:20.449Z,19.57
2018-05-21T05:15:46.888Z,19.33
2018-05-21T05:18:13.248Z,18.23
2018-05-21T05:20:39.650Z,18.20
2018-05-21T05:23:06.110Z,15.73
2018-05-21T05:25:32.606Z,16.60
2018-05-21T05:27:58.997Z,14.97
2018-05-21T05:30:25.370Z,15.90
2018-05-21T05:32:51.971Z,15.77
2018-05-21T05:35:18.531Z,15.47
2018-05-21T05:37:45.010Z,16.90
2018-05-21T05:40:12.525Z,16.17
2018-05-21T05:42:38.942Z,15.67
2018-05-21T05:45:06.574Z,15.23
2018-05-21T05:47:33.024Z,14.23
2018-05-21T05:49:59.691Z,13.60
2018-05-21T05:52:26.134Z,13.27
2018-05-21T05:54:52.521Z,13.57
2018-05-21T05:57:18.978Z,9.80
2018-05-21T05:59:45.538Z,14.03
2018-05-21T06:02:11.896Z,13.80
2018-05-21T06:04:38.500Z,14.03
2018-05-21T06:07:05.372Z,12.50
2018-05-21T06:09:32.031Z,13.67
2018-05-21T06:11:58.438Z,14.23
2018-05-21T06:14:24.829Z,13.17
2018-05-21T06:16:51.509Z,14.27
2018-05-21T06:19:18.149Z,13.00
2018-05-21T06:21:44.630Z,13.43
2018-05-21T06:24:11.274Z,13.20
2018-05-21T06:26:37.695Z,12.43
2018-05-21T06:29:04.215Z,13.67
2018-05-21T06:31:30.751Z,11.63
2018-05-21T06:33:57.466Z,11.27
2018-05-21T06:36:23.924Z,10.93
2018-05-21T06:38:50.467Z,10.67
2018-05-21T06:41:16.871Z,11.23
2018-05-21T06:43:43.278Z,10.10
2018-05-21T06:46:09.838Z,10.57
2018-05-21T06:48:36.382Z,10.50
2018-05-21T06:51:02.914Z,10.97
2018-05-21T06:53:29.386Z,10.70
2018-05-21T06:55:55.905Z,7.73
2018-05-21T06:58:22.320Z,8.90
2018-05-21T07:00:48.962Z,8.57
2018-05-21T07:03:15.418Z,8.67
2018-05-21T07:05:41.843Z,7.93
2018-05-21T07:08:08.299Z,7.97
2018-05-21T07:10:34.710Z,8.00
2018-05-21T07:13:01.488Z,8.60
2018-05-21T07:15:28.062Z,8.77
2018-05-21T07:17:54.577Z,8.50
2018-05-21T07:20:21.162Z,8.40
2018-05-21T07:22:47.921Z,9.10
2018-05-21T07:25:14.386Z,8.70
2018-05-21T07:27:40.768Z,8.70
2018-05-21T07:30:07.305Z,7.80
2018-05-21T07:32:33.691Z,8.33
2018-05-21T07:35:00.299Z,7.70
2018-05-21T07:37:26.632Z,8.70
2018-05-21T07:39:53.044Z,8.33
2018-05-21T07:42:19.445Z,7.80
2018-05-21T07:44:46.217Z,7.63
2018-05-21T07:47:13.439Z,8.47
2018-05-21T07:49:39.858Z,8.23
2018-05-21T07:52:06.305Z,7.30
2018-05-21T07:54:32.746Z,7.83
2018-05-21T07:56:59.149Z,8.33
2018-05-21T07:59:25.592Z,8.07
2018-05-21T08:01:52.168Z,8.27
2018-05-21T08:04:18.838Z,7.37
2018-05-21T08:06:45.619Z,7.50
2018-05-21T08:09:12.015Z,6.80
2018-05-21T08:11:38.519Z,6.80
2018-05-21T08:14:04.950Z,7.37
2018-05-21T08:16:33.469Z,7.33
2018-05-21T08:19:00.868Z,7.10
2018-05-21T08:21:27.728Z,7.47
2018-05-21T08:23:54.270Z,6.80
2018-05-21T08:26:20.880Z,6.90
2018-05-21T08:28:47.317Z,6.33
2018-05-21T08:31:13.775Z,6.73
2018-05-21T08:33:40.349Z,6.20
2018-05-21T08:36:06.848Z,6.07
2018-05-21T08:38:33.317Z,6.90
2018-05-21T08:40:59.840Z,6.90
2018-05-21T08:43:26.232Z,7.07
2018-05-21T08:45:52.654Z,6.83
2018-05-21T08:48:19.082Z,6.73
2018-05-21T08:50:45.828Z,6.97
2018-05-21T08:53:12.317Z,6.73
2018-05-21T08:55:38.733Z,6.03
2018-05-21T08:58:05.182Z,6.50
2018-05-21T09:00:31.631Z,6.53
2018-05-21T09:02:58.050Z,6.40
2018-05-21T09:05:25.661Z,5.70
2018-05-21T09:07:52.147Z,5.60
2018-05-21T09:10:19.180Z,6.33
2018-05-21T09:12:45.733Z,5.83
2018-05-21T09:15:12.161Z,5.77
2018-05-21T09:17:39.492Z,5.47
2018-05-21T09:20:06.049Z,5.60
2018-05-21T09:22:32.511Z,5.77
2018-05-21T09:24:59.712Z,6.37
2018-05-21T09:27:26.252Z,6.30
2018-05-21T09:29:52.684Z,5.40
2018-05-21T09:32:19.470Z,5.50
2018-05-21T09:34:45.865Z,4.90
2018-05-21T09:37:13.232Z,5.20
2018-05-21T09:39:41.905Z,5.00
2018-05-21T09:42:08.473Z,5.40
2018-05-21T09:44:35.059Z,5.00
2018-05-21T09:47:01.695Z,4.67
2018-05-21T09:49:28.106Z,4.83
2018-05-21T09:51:54.685Z,5.33
2018-05-21T09:54:21.320Z,4.43
2018-05-21T09:56:47.754Z,4.97
2018-05-21T09:59:14.138Z,4.20
2018-05-21T10:01:40.620Z,4.53
2018-05-21T10:04:08.748Z,4.40
2018-05-21T10:06:35.916Z,4.43
2018-05-21T10:09:02.614Z,4.63
2018-05-21T10:11:29.270Z,5.10
2018-05-21T10:13:56.125Z,4.70
2018-05-21T10:16:22.678Z,4.23
2018-05-21T10:18:49.275Z,4.10
2018-05-21T10:21:15.644Z,4.13
2018-05-21T10:23:42.161Z,4.53
2018-05-21T10:26:09.296Z,4.17
2018-05-21T10:28:35.764Z,3.90
2018-05-21T10:31:02.127Z,3.43
2018-05-21T10:33:28.918Z,3.57
2018-05-21T10:35:57.207Z,4.17
2018-05-21T10:38:23.627Z,3.77
2018-05-21T10:40:50.110Z,4.10
2018-05-21T10:43:16.518Z,3.80
2018-05-21T10:45:42.978Z,4.10
2018-05-21T10:48:09.617Z,4.50
2018-05-21T10:50:36.152Z,3.97
2018-05-21T10:53:02.687Z,3.90
2018-05-21T10:55:29.065Z,3.80
2018-05-21T10:57:55.917Z,3.97
2018-05-21T11:00:22.330Z,3.77
2018-05-21T11:02:48.731Z,3.87
2018-05-21T11:05:15.837Z,3.60
2018-05-21T11:07:42.266Z,4.20
2018-05-21T11:10:08.861Z,3.73
2018-05-21T11:12:35.463Z,4.10
2018-05-21T11:15:01.860Z,3.23
2018-05-21T11:17:28.278Z,3.73
2018-05-21T11:19:54.726Z,4.10
2018-05-21T11:22:21.144Z,3.70
2018-05-21T11:24:47.535Z,3.30
2018-05-21T11:27:14.244Z,3.40
2018-05-21T11:29:40.598Z,3.70
2018-05-21T11:32:07.037Z,3.70
2018-05-21T11:34:34.280Z,3.43
2018-05-21T11:37:00.744Z,3.97
2018-05-21T11:39:27.180Z,3.53
2018-05-21T11:41:53.593Z,3.50
2018-05-21T11:44:19.978Z,3.50
2018-05-21T11:46:46.374Z,3.53
2018-05-21T11:49:13.557Z,3.10
2018-05-21T11:51:39.954Z,3.37
2018-05-21T11:54:06.365Z,3.70
2018-05-21T11:56:32.809Z,2.93
2018-05-21T11:58:59.173Z,3.60
2018-05-21T12:01:25.656Z,3.47
2018-05-21T12:03:52.280Z,3.70
2018-05-21T12:06:18.942Z,3.57
2018-05-21T12:08:45.336Z,3.30
2018-05-21T12:11:11.713Z,3.57
2018-05-21T12:13:38.133Z,3.50
2018-05-21T12:16:04.590Z,3.93
2018-05-21T12:18:31.014Z,3.57
2018-05-21T12:20:57.645Z,4.20
2018-05-21T12:23:24.417Z,3.50
2018-05-21T12:25:51.085Z,3.87
2018-05-21T12:28:17.712Z,3.80
2018-05-21T12:30:44.086Z,3.63
2018-05-21T12:33:10.521Z,3.70
2018-05-21T12:35:36.869Z,3.70
2018-05-21T12:38:03.395Z,4.13
2018-05-21T12:40:29.804Z,3.67
2018-05-21T12:42:56.177Z,4.13
2018-05-21T12:45:22.593Z,3.67
2018-05-21T12:47:49.006Z,3.60
2018-05-21T12:50:15.439Z,4.10
2018-05-21T12:52:41.896Z,3.70
2018-05-21T12:55:08.504Z,3.60
2018-05-21T12:57:35.130Z,3.80
2018-05-21T13:00:02.479Z,4.10
2018-05-21T13:02:28.847Z,3.87
2018-05-21T13:04:56.322Z,4.00
2018-05-21T13:07:22.750Z,4.07
2018-05-21T13:09:49.184Z,3.83
2018-05-21T13:12:15.608Z,3.50
2018-05-21T13:14:42.056Z,3.33
2018-05-21T13:17:08.444Z,3.70
2018-05-21T13:19:34.842Z,3.70
2018-05-21T13:22:01.386Z,3.70
2018-05-21T13:24:28.282Z,3.60
2018-05-21T13:26:55.242Z,3.40
2018-05-21T13:29:21.614Z,3.47
2018-05-21T13:31:48.149Z,3.73
2018-05-21T13:34:14.579Z,3.70
2018-05-21T13:36:40.978Z,4.10
2018-05-21T13:39:07.438Z,3.77
2018-05-21T13:41:33.854Z,3.40
2018-05-21T13:44:00.327Z,3.80
2018-05-21T13:46:26.746Z,3.90
2018-05-21T13:48:53.143Z,3.67
2018-05-21T13:51:19.721Z,3.77
2018-05-21T13:53:46.125Z,3.93
2018-05-21T13:56:12.709Z,3.93
2018-05-21T13:58:39.291Z,3.80
2018-05-21T14:01:05.733Z,3.80
2018-05-21T14:03:32.206Z,3.70
2018-05-21T14:05:58.601Z,3.93
2018-05-21T14:08:25.151Z,3.70
2018-05-21T14:10:51.584Z,3.73
2018-05-21T14:13:17.985Z,3.90
2018-05-21T14:15:44.978Z,3.53
2018-05-21T14:18:11.370Z,3.30
2018-05-21T14:20:37.726Z,3.47
2018-05-21T14:23:04.189Z,4.13
2018-05-21T14:25:30.638Z,3.70
2018-05-21T14:27:57.062Z,3.70
2018-05-21T14:30:23.671Z,3.40
2018-05-21T14:32:50.306Z,3.40
2018-05-21T14:35:16.717Z,3.37
2018-05-21T14:37:43.185Z,3.60
2018-05-21T14:40:09.658Z,3.70
2018-05-21T14:42:36.144Z,3.80
2018-05-21T14:45:02.604Z,6.67
2018-05-21T14:47:29.251Z,5.43
2018-05-21T14:49:55.623Z,5.40
2018-05-21T14:52:22.289Z,4.13
2018-05-21T14:54:48.767Z,4.20
2018-05-21T14:57:15.362Z,3.87
2018-05-21T14:59:41.732Z,4.03
2018-05-21T15:02:08.224Z,3.53
2018-05-21T15:04:34.679Z,4.23
2018-05-21T15:07:01.058Z,3.40
2018-05-21T15:09:27.574Z,3.80
2018-05-21T15:11:53.964Z,3.87
2018-05-21T15:14:20.515Z,4.83
2018-05-21T15:16:47.827Z,4.37
2018-05-21T15:19:14.282Z,4.07
2018-05-21T15:21:40.798Z,3.90
2018-05-21T15:24:07.232Z,3.40
2018-05-21T15:26:33.871Z,4.73
2018-05-21T15:29:00.462Z,4.60
2018-05-21T15:31:26.889Z,4.63
2018-05-21T15:33:53.265Z,4.50
2018-05-21T15:36:19.757Z,4.13
2018-05-21T15:38:46.162Z,4.40
2018-05-21T15:41:12.596Z,3.77
2018-05-21T15:43:39.115Z,3.80
2018-05-21T15:46:05.875Z,4.20
2018-05-21T15:48:32.310Z,3.70
2018-05-21T15:50:58.699Z,3.90
2018-05-21T15:53:25.095Z,4.00
2018-05-21T15:55:52.765Z,3.77
2018-05-21T15:58:19.145Z,4.63
2018-05-21T16:00:46.590Z,5.37
2018-05-21T16:03:14.057Z,3.90
2018-05-21T16:05:40.421Z,4.27
2018-05-21T16:08:07.062Z,5.97
2018-05-21T16:10:33.474Z,5.90
2018-05-21T16:12:59.813Z,8.50
2018-05-21T16:15:26.285Z,7.70
2018-05-21T16:17:52.676Z,6.60
2018-05-21T16:20:19.218Z,5.10
2018-05-21T16:22:45.626Z,5.63
2018-05-21T16:25:12.006Z,5.57
2018-05-21T16:27:38.421Z,5.50
2018-05-21T16:30:04.979Z,4.70
2018-05-21T16:32:31.390Z,5.27
2018-05-21T16:34:57.761Z,5.33
2018-05-21T16:37:24.125Z,5.60
2018-05-21T16:39:50.489Z,5.27
2018-05-21T16:42:16.867Z,5.30
2018-05-21T16:44:43.276Z,4.17
2018-05-21T16:47:09.655Z,4.83
2018-05-21T16:49:36.046Z,4.87
2018-05-21T16:52:02.498Z,5.23
2018-05-21T16:54:28.889Z,5.50
2018-05-21T16:56:55.290Z,6.97
2018-05-21T16:59:21.798Z,6.50
2018-05-21T17:01:48.152Z,6.67
2018-05-21T17:04:14.520Z,6.40
2018-05-21T17:06:40.913Z,6.23
2018-05-21T17:09:07.280Z,6.40
2018-05-21T17:11:33.649Z,5.73
2018-05-21T17:14:00.088Z,5.67
2018-05-21T17:16:26.485Z,5.30
2018-05-21T17:18:52.861Z,5.70
2018-05-21T17:21:19.256Z,4.97
2018-05-21T17:23:45.649Z,5.07
2018-05-21T17:26:11.968Z,5.40
2018-05-21T17:28:38.389Z,6.17
2018-05-21T17:31:04.784Z,5.73
2018-05-21T17:33:31.299Z,5.53
2018-05-21T17:35:57.709Z,5.70
2018-05-21T17:38:24.085Z,4.80
2018-05-21T17:40:50.472Z,5.20
2018-05-21T17:43:16.848Z,5.77
2018-05-21T17:45:43.270Z,6.17
2018-05-21T17:48:09.678Z,5.83
2018-05-21T17:50:36.132Z,5.13
2018-05-21T17:53:02.503Z,6.33
2018-05-21T17:55:28.955Z,5.47
2018-05-21T17:57:55.468Z,5.70
2018-05-21T18:00:21.873Z,5.63
2018-05-21T18:02:48.285Z,5.87
2018-05-21T18:05:14.648Z,5.63
2018-05-21T18:07:41.013Z,5.07
2018-05-21T18:10:07.435Z,4.57
2018-05-21T18:12:33.802Z,5.37
2018-05-21T18:15:01.132Z,5.10
2018-05-21T18:17:27.542Z,5.20
2018-05-21T18:19:54.049Z,5.53
2018-05-21T18:22:20.456Z,6.17
2018-05-21T18:24:46.841Z,5.30
2018-05-21T18:27:13.214Z,5.40
2018-05-21T18:29:39.634Z,4.97
2018-05-21T18:32:06.050Z,5.17
2018-05-21T18:34:32.466Z,5.33
2018-05-21T18:36:58.918Z,4.97
2018-05-21T18:39:25.416Z,5.30
2018-05-21T18:41:51.745Z,5.30
2018-05-21T18:44:18.152Z,5.00
2018-05-21T18:46:44.485Z,4.90
2018-05-21T18:49:10.843Z,5.10
2018-05-21T18:51:37.361Z,5.20
2018-05-21T18:54:03.916Z,5.47
2018-05-21T18:56:30.281Z,5.47
2018-05-21T18:58:56.681Z,5.27
2018-05-21T19:01:23.014Z,4.93
2018-05-21T19:03:49.372Z,5.10
2018-05-21T19:06:15.754Z,5.20
2018-05-21T19:08:42.174Z,4.70
2018-05-21T19:11:08.577Z,5.20
2018-05-21T19:13:35.003Z,4.27
2018-05-21T19:16:01.499Z,4.67
2018-05-21T19:18:28.764Z,5.10
2018-05-21T19:20:55.170Z,4.70
2018-05-21T19:23:21.549Z,5.13
2018-05-21T19:25:47.918Z,4.67
2018-05-21T19:28:14.341Z,5.20
2018-05-21T19:30:40.708Z,5.20
2018-05-21T19:33:07.110Z,4.70
2018-05-21T19:35:33.509Z,4.90
2018-05-21T19:38:00.128Z,4.90
2018-05-21T19:40:26.700Z,4.93
2018-05-21T19:42:53.053Z,5.10
2018-05-21T19:45:19.529Z,4.90
2018-05-21T19:47:46.168Z,5.07
2018-05-21T19:50:12.517Z,4.77
2018-05-21T19:52:38.906Z,4.80
2018-05-21T19:55:05.365Z,5.10
2018-05-21T19:57:31.766Z,5.10
2018-05-21T19:59:58.244Z,5.07
2018-05-21T20:02:24.638Z,4.80
2018-05-21T20:04:51.070Z,4.80
2018-05-21T20:07:17.547Z,4.90
2018-05-21T20:09:43.937Z,4.47
2018-05-21T20:12:10.277Z,4.83
2018-05-21T20:14:36.606Z,4.53
2018-05-21T20:17:03.030Z,5.00
2018-05-21T20:19:29.441Z,4.67
2018-05-21T20:21:55.854Z,4.53
2018-05-21T20:24:22.326Z,4.80
2018-05-21T20:26:48.760Z,5.13
2018-05-21T20:29:15.185Z,4.37
2018-05-21T20:31:41.561Z,4.37
2018-05-21T20:34:07.955Z,5.60
2018-05-21T20:36:34.354Z,4.80
2018-05-21T20:39:00.754Z,4.20
2018-05-21T20:41:27.168Z,4.30
2018-05-21T20:43:53.593Z,4.40
2018-05-21T20:46:19.994Z,4.67
2018-05-21T20:48:47.250Z,4.40
2018-05-21T20:51:13.637Z,4.03
2018-05-21T20:53:40.001Z,5.00
2018-05-21T20:56:06.530Z,4.53
2018-05-21T20:58:32.785Z,4.57
2018-05-21T21:00:59.200Z,4.40
2018-05-21T21:03:25.578Z,4.00
2018-05-21T21:05:51.968Z,4.03
2018-05-21T21:08:18.374Z,3.83
2018-05-21T21:10:44.804Z,3.83
2018-05-21T21:13:11.607Z,4.17
2018-05-21T21:15:37.987Z,3.60
2018-05-21T21:18:04.419Z,4.03
2018-05-21T21:20:30.829Z,3.80
2018-05-21T21:22:57.227Z,3.83
2018-05-21T21:25:23.609Z,3.60
2018-05-21T21:27:50.018Z,4.07
2018-05-21T21:30:16.334Z,3.80
2018-05-21T21:32:42.743Z,3.83
2018-05-21T21:35:09.138Z,3.73
2018-05-21T21:37:35.498Z,3.90
2018-05-21T21:40:01.814Z,3.97
2018-05-21T21:42:28.158Z,3.83
2018-05-21T21:44:54.516Z,3.93
2018-05-21T21:47:21.743Z,3.67
2018-05-21T21:49:49.003Z,4.00
2018-05-21T21:52:15.435Z,4.00
2018-05-21T21:54:41.904Z,3.60
2018-05-21T21:57:08.298Z,3.90
2018-05-21T21:59:34.970Z,4.20
2018-05-21T22:02:01.314Z,4.70
2018-05-21T22:04:27.658Z,4.07
2018-05-21T22:06:54.138Z,3.87
2018-05-21T22:09:20.455Z,4.30
2018-05-21T22:11:47.718Z,3.90
2018-05-21T22:14:14.151Z,4.07
2018-05-21T22:16:41.764Z,3.70
2018-05-21T22:19:08.243Z,3.87
2018-05-21T22:21:34.682Z,3.93
2018-05-21T22:24:01.100Z,4.43
2018-05-21T22:26:27.628Z,4.63
2018-05-21T22:28:54.725Z,4.13
2018-05-21T22:31:21.273Z,4.33
2018-05-21T22:33:47.963Z,4.20
2018-05-21T22:36:14.450Z,3.93
2018-05-21T22:38:40.866Z,4.00
2018-05-21T22:41:07.166Z,5.13
2018-05-21T22:43:34.399Z,4.37
2018-05-21T22:46:00.710Z,4.23
2018-05-21T22:48:27.043Z,4.23
2018-05-21T22:50:53.405Z,4.77
2018-05-21T22:53:19.729Z,4.40
2018-05-21T22:55:46.114Z,4.70
2018-05-21T22:58:13.978Z,4.23
2018-05-21T23:00:40.340Z,3.87
2018-05-21T23:03:06.706Z,4.50
2018-05-21T23:05:33.920Z,4.53
2018-05-21T23:08:00.293Z,4.70
2018-05-21T23:10:26.807Z,4.47
2018-05-21T23:12:53.301Z,5.17
2018-05-21T23:15:19.710Z,5.33
2018-05-21T23:17:46.110Z,5.13
2018-05-21T23:20:12.493Z,6.10
2018-05-21T23:22:43.862Z,5.73
2018-05-21T23:25:10.423Z,6.30
2018-05-21T23:27:36.831Z,6.77
2018-05-21T23:30:03.320Z,6.37
2018-05-21T23:32:29.806Z,6.77
2018-05-21T23:34:56.235Z,7.20
2018-05-21T23:37:22.641Z,7.47
2018-05-21T23:39:49.024Z,7.90
2018-05-21T23:42:16.046Z,7.87
2018-05-21T23:44:42.610Z,8.40
2018-05-21T23:47:09.962Z,8.60
2018-05-21T23:49:36.370Z,8.60
2018-05-21T23:52:02.786Z,8.77
2018-05-21T23:54:29.165Z,9.13
2018-05-21T23:56:55.552Z,9.13
2018-05-21T23:59:21.930Z,9.87
